createdAt,value
2019-02-19T00:00:57.195Z,12.30
2019-02-19T00:03:29.587Z,12.30
2019-02-19T00:06:02.017Z,12.30
2019-02-19T00:08:34.422Z,12.30
2019-02-19T00:11:06.845Z,12.30
2019-02-19T00:13:39.264Z,12.30
2019-02-19T00:16:11.730Z,12.30
2019-02-19T00:18:44.145Z,12.20
2019-02-19T00:21:16.576Z,12.20
2019-02-19T00:23:48.960Z,12.20
2019-02-19T00:26:21.383Z,12.20
2019-02-19T00:28:53.917Z,12.10
2019-02-19T00:31:26.334Z,12.10
2019-02-19T00:33:58.748Z,12.10
2019-02-19T00:36:31.184Z,12.00
2019-02-19T00:39:04.738Z,12.00
2019-02-19T00:41:38.373Z,12.00
2019-02-19T00:44:10.914Z,12.00
2019-02-19T00:46:43.355Z,12.00
2019-02-19T00:49:15.771Z,12.00
2019-02-19T00:51:48.218Z,12.00
2019-02-19T00:54:20.621Z,12.00
2019-02-19T00:56:53.037Z,12.00
2019-02-19T00:59:25.468Z,12.00
2019-02-19T01:01:57.887Z,12.00
2019-02-19T01:04:30.300Z,12.00
2019-02-19T01:07:02.729Z,12.00
2019-02-19T01:09:35.134Z,11.90
2019-02-19T01:12:07.555Z,11.90
2019-02-19T01:14:39.943Z,11.90
2019-02-19T01:17:12.372Z,11.90
2019-02-19T01:19:44.770Z,11.80
2019-02-19T01:22:17.297Z,11.80
2019-02-19T01:24:49.694Z,11.80
2019-02-19T01:27:22.107Z,11.80
2019-02-19T01:29:54.709Z,11.80
2019-02-19T01:32:27.130Z,11.80
2019-02-19T01:34:59.580Z,11.80
2019-02-19T01:37:31.975Z,11.80
2019-02-19T01:40:04.950Z,11.80
2019-02-19T01:42:37.346Z,11.80
2019-02-19T01:45:10.319Z,11.80
2019-02-19T01:47:42.718Z,11.80
2019-02-19T01:50:15.138Z,11.80
2019-02-19T01:52:47.542Z,11.80
2019-02-19T01:55:19.960Z,11.80
2019-02-19T01:57:52.389Z,11.80
2019-02-19T02:00:24.805Z,11.80
2019-02-19T02:02:57.197Z,11.80
2019-02-19T02:05:30.796Z,11.70
2019-02-19T02:08:03.200Z,11.70
2019-02-19T02:10:35.560Z,11.70
2019-02-19T02:13:07.960Z,11.60
2019-02-19T02:15:42.670Z,11.50
2019-02-19T02:18:14.487Z,11.50
2019-02-19T02:20:46.913Z,11.50
2019-02-19T02:23:19.326Z,11.50
2019-02-19T02:25:51.762Z,11.60
2019-02-19T02:28:24.193Z,11.60
2019-02-19T02:30:56.623Z,11.60
2019-02-19T02:33:29.048Z,11.60
2019-02-19T02:36:01.474Z,11.60
2019-02-19T02:38:33.873Z,11.60
2019-02-19T02:41:06.307Z,11.60
2019-02-19T02:43:38.734Z,11.60
2019-02-19T02:46:11.140Z,11.60
2019-02-19T02:48:43.531Z,11.60
2019-02-19T02:51:15.966Z,11.50
2019-02-19T02:53:48.359Z,11.50
2019-02-19T02:56:20.788Z,11.50
2019-02-19T02:58:53.203Z,11.50
2019-02-19T03:01:25.574Z,11.50
2019-02-19T03:03:57.980Z,11.50
2019-02-19T03:06:37.141Z,11.40
2019-02-19T03:09:09.557Z,11.40
2019-02-19T03:11:41.959Z,11.40
2019-02-19T03:14:14.488Z,11.50
2019-02-19T03:16:46.910Z,11.50
2019-02-19T03:19:19.325Z,11.50
2019-02-19T03:21:51.739Z,11.50
2019-02-19T03:24:24.140Z,11.50
2019-02-19T03:26:56.485Z,11.50
2019-02-19T03:29:29.122Z,11.40
2019-02-19T03:32:01.540Z,11.50
2019-02-19T03:34:33.949Z,11.40
2019-02-19T03:37:06.365Z,11.40
2019-02-19T03:39:38.765Z,11.40
2019-02-19T03:42:11.178Z,11.40
2019-02-19T03:44:43.575Z,11.40
2019-02-19T03:47:16.007Z,11.40
2019-02-19T03:49:48.410Z,11.40
2019-02-19T03:52:20.852Z,11.40
2019-02-19T03:54:53.266Z,11.40
2019-02-19T03:57:25.680Z,11.40
2019-02-19T03:59:58.105Z,11.40
2019-02-19T04:02:30.457Z,11.40
2019-02-19T04:05:02.869Z,11.40
2019-02-19T04:07:35.370Z,11.40
2019-02-19T04:10:08.126Z,11.40
2019-02-19T04:12:40.461Z,11.40
2019-02-19T04:15:12.870Z,11.50
2019-02-19T04:17:45.301Z,11.50
2019-02-19T04:20:17.703Z,11.50
2019-02-19T04:22:50.132Z,11.50
2019-02-19T04:25:22.546Z,11.60
2019-02-19T04:27:55.183Z,11.60
2019-02-19T04:30:27.589Z,11.50
2019-02-19T04:33:00.103Z,11.50
2019-02-19T04:35:32.505Z,11.50
2019-02-19T04:38:04.925Z,11.50
2019-02-19T04:40:37.338Z,11.40
2019-02-19T04:43:09.794Z,11.40
2019-02-19T04:45:42.278Z,11.40
2019-02-19T04:48:14.708Z,11.50
2019-02-19T04:50:47.224Z,11.50
2019-02-19T04:53:19.747Z,11.50
2019-02-19T04:55:52.152Z,11.50
2019-02-19T04:58:24.581Z,11.60
2019-02-19T05:00:57.010Z,11.60
2019-02-19T05:03:29.534Z,11.60
2019-02-19T05:06:01.949Z,11.60
2019-02-19T05:08:34.672Z,11.60
2019-02-19T05:11:07.176Z,11.60
2019-02-19T05:13:39.895Z,11.60
2019-02-19T05:16:12.313Z,11.60
2019-02-19T05:18:44.710Z,11.70
2019-02-19T05:21:17.099Z,11.70
2019-02-19T05:23:49.496Z,11.70
2019-02-19T05:26:21.883Z,11.80
2019-02-19T05:28:54.300Z,11.80
2019-02-19T05:31:26.782Z,11.80
2019-02-19T05:33:59.287Z,11.80
2019-02-19T05:36:31.667Z,11.80
2019-02-19T05:39:05.183Z,11.80
2019-02-19T05:41:38.737Z,11.80
2019-02-19T05:44:11.125Z,11.80
2019-02-19T05:46:49.895Z,11.80
2019-02-19T05:49:18.823Z,11.80
2019-02-19T05:51:51.407Z,11.80
2019-02-19T05:54:23.992Z,11.80
2019-02-19T05:56:56.361Z,11.90
2019-02-19T05:59:28.738Z,11.80
2019-02-19T06:02:01.163Z,11.90
2019-02-19T06:04:33.739Z,11.90
2019-02-19T06:07:06.212Z,11.90
2019-02-19T06:09:38.614Z,11.90
2019-02-19T06:12:10.987Z,11.90
2019-02-19T06:14:43.479Z,11.90
2019-02-19T06:17:15.897Z,11.90
2019-02-19T06:19:48.268Z,12.00
2019-02-19T06:22:20.644Z,12.00
2019-02-19T06:24:53.068Z,12.00
2019-02-19T06:27:25.440Z,12.00
2019-02-19T06:29:57.865Z,12.10
2019-02-19T06:32:30.234Z,12.00
2019-02-19T06:35:02.635Z,12.10
2019-02-19T06:37:35.004Z,12.10
2019-02-19T06:40:09.474Z,12.10
2019-02-19T06:42:41.820Z,12.10
2019-02-19T06:45:14.217Z,12.20
2019-02-19T06:47:46.619Z,12.20
2019-02-19T06:50:19.018Z,12.20
2019-02-19T06:52:51.460Z,12.30
2019-02-19T06:55:23.855Z,12.30
2019-02-19T06:57:56.304Z,12.30
2019-02-19T07:00:28.709Z,12.30
2019-02-19T07:03:10.524Z,12.40
2019-02-19T07:05:42.926Z,12.40
2019-02-19T07:08:15.299Z,12.50
2019-02-19T07:10:48.759Z,12.50
2019-02-19T07:13:21.131Z,12.50
2019-02-19T07:15:53.526Z,12.50
2019-02-19T07:18:25.978Z,12.60
2019-02-19T07:20:58.379Z,12.60
2019-02-19T07:23:30.751Z,12.70
2019-02-19T07:26:03.161Z,12.70
2019-02-19T07:28:35.483Z,12.70
2019-02-19T07:31:07.911Z,12.80
2019-02-19T07:33:40.296Z,12.80
2019-02-19T07:36:13.771Z,12.90
2019-02-19T07:38:46.217Z,12.90
2019-02-19T07:41:20.182Z,13.00
2019-02-19T07:43:54.195Z,13.00
2019-02-19T07:46:26.786Z,13.00
2019-02-19T07:49:00.729Z,13.00
2019-02-19T07:51:33.121Z,13.10
2019-02-19T07:54:05.591Z,13.10
2019-02-19T07:56:38.071Z,13.10
2019-02-19T07:59:10.437Z,13.20
2019-02-19T08:01:42.847Z,13.20
2019-02-19T08:04:15.222Z,13.30
2019-02-19T08:06:47.620Z,13.30
2019-02-19T08:09:20.000Z,13.30
2019-02-19T08:11:52.399Z,13.40
2019-02-19T08:14:24.775Z,13.40
2019-02-19T08:16:58.045Z,13.40
2019-02-19T08:19:31.408Z,13.50
2019-02-19T08:22:03.911Z,13.50
2019-02-19T08:24:36.299Z,13.50
2019-02-19T08:27:08.808Z,13.60
2019-02-19T08:29:41.196Z,13.60
2019-02-19T08:32:13.611Z,13.60
2019-02-19T08:34:45.978Z,13.70
2019-02-19T08:37:18.377Z,13.70
2019-02-19T08:39:50.748Z,13.80
2019-02-19T08:42:23.258Z,13.80
2019-02-19T08:44:55.674Z,13.80
2019-02-19T08:47:28.067Z,13.90
2019-02-19T08:50:00.372Z,13.90
2019-02-19T08:52:32.876Z,13.90
2019-02-19T08:55:05.281Z,14.00
2019-02-19T08:57:37.688Z,14.00
2019-02-19T09:00:10.992Z,14.00
2019-02-19T09:02:44.943Z,14.00
2019-02-19T09:05:17.319Z,14.10
2019-02-19T09:07:49.721Z,14.10
2019-02-19T09:10:22.092Z,14.10
2019-02-19T09:12:54.482Z,14.10
2019-02-19T09:15:26.839Z,14.20
2019-02-19T09:17:59.322Z,14.20
2019-02-19T09:20:31.697Z,14.20
2019-02-19T09:23:04.093Z,14.30
2019-02-19T09:25:36.560Z,14.30
2019-02-19T09:28:08.965Z,14.30
2019-02-19T09:30:41.363Z,14.30
2019-02-19T09:33:13.861Z,14.40
2019-02-19T09:35:46.219Z,14.40
2019-02-19T09:38:19.016Z,14.40
2019-02-19T09:40:51.388Z,14.40
2019-02-19T09:43:24.865Z,14.40
2019-02-19T09:45:59.008Z,14.40
2019-02-19T09:48:31.553Z,14.50
2019-02-19T09:51:04.052Z,14.50
2019-02-19T09:53:36.455Z,14.50
2019-02-19T09:56:08.948Z,14.50
2019-02-19T09:58:41.357Z,14.50
2019-02-19T10:01:13.741Z,14.50
2019-02-19T10:03:46.149Z,14.60
2019-02-19T10:06:18.527Z,14.60
2019-02-19T10:08:50.935Z,14.60
2019-02-19T10:11:23.323Z,14.60
2019-02-19T10:13:55.724Z,14.60
2019-02-19T10:16:28.113Z,14.60
2019-02-19T10:19:00.533Z,14.60
2019-02-19T10:21:32.957Z,14.60
2019-02-19T10:24:05.363Z,14.60
2019-02-19T10:26:37.765Z,14.60
2019-02-19T10:29:10.154Z,14.60
2019-02-19T10:31:42.573Z,14.60
2019-02-19T10:34:14.944Z,14.60
2019-02-19T10:36:47.546Z,14.70
2019-02-19T10:39:19.931Z,14.70
2019-02-19T10:41:53.032Z,14.70
2019-02-19T10:44:25.444Z,14.70
2019-02-19T10:46:57.880Z,14.70
2019-02-19T10:49:30.358Z,14.70
2019-02-19T10:52:02.761Z,14.60
2019-02-19T10:54:35.149Z,14.60
2019-02-19T10:57:07.556Z,14.60
2019-02-19T10:59:39.937Z,14.60
2019-02-19T11:02:12.343Z,14.60
2019-02-19T11:04:44.711Z,14.60
2019-02-19T11:07:17.116Z,14.70
2019-02-19T11:09:49.507Z,14.70
2019-02-19T11:12:22.201Z,14.70
2019-02-19T11:14:54.575Z,14.70
2019-02-19T11:17:26.985Z,14.70
2019-02-19T11:19:59.296Z,14.70
2019-02-19T11:22:31.623Z,14.60
2019-02-19T11:25:04.024Z,14.70
2019-02-19T11:27:36.434Z,14.70
2019-02-19T11:30:12.383Z,14.70
2019-02-19T11:32:44.861Z,14.70
2019-02-19T11:35:17.183Z,14.70
2019-02-19T11:37:49.587Z,14.70
2019-02-19T11:40:21.965Z,14.70
2019-02-19T11:42:54.441Z,14.70
2019-02-19T11:45:26.878Z,14.70
2019-02-19T11:47:59.280Z,14.70
2019-02-19T11:50:31.696Z,14.80
2019-02-19T11:53:05.164Z,14.80
2019-02-19T11:55:37.572Z,14.80
2019-02-19T11:58:09.991Z,14.80
2019-02-19T12:00:42.895Z,14.80
2019-02-19T12:03:15.463Z,14.90
2019-02-19T12:05:47.867Z,14.90
2019-02-19T12:08:21.314Z,14.90
2019-02-19T12:10:53.849Z,14.90
2019-02-19T12:13:26.262Z,14.90
2019-02-19T12:15:58.655Z,15.00
2019-02-19T12:18:31.027Z,15.00
2019-02-19T12:21:03.433Z,15.00
2019-02-19T12:23:35.825Z,15.00
2019-02-19T12:26:08.320Z,15.00
2019-02-19T12:28:40.688Z,15.10
2019-02-19T12:31:13.107Z,15.10
2019-02-19T12:33:45.487Z,15.10
2019-02-19T12:36:17.887Z,15.10
2019-02-19T12:38:50.267Z,15.20
2019-02-19T12:41:22.973Z,15.20
2019-02-19T12:43:55.346Z,15.20
2019-02-19T12:46:27.762Z,15.20
2019-02-19T12:49:00.152Z,15.30
2019-02-19T12:51:32.555Z,15.30
2019-02-19T12:54:04.932Z,15.30
2019-02-19T12:56:37.336Z,15.30
2019-02-19T12:59:09.724Z,15.40
2019-02-19T13:01:42.128Z,15.40
2019-02-19T13:04:14.511Z,15.50
2019-02-19T13:06:46.924Z,15.50
2019-02-19T13:09:19.320Z,15.50
2019-02-19T13:11:51.737Z,15.60
2019-02-19T13:14:24.200Z,15.60
2019-02-19T13:16:56.621Z,15.60
2019-02-19T13:19:28.996Z,15.70
2019-02-19T13:22:01.408Z,15.70
2019-02-19T13:24:33.784Z,15.70
2019-02-19T13:27:06.194Z,15.70
2019-02-19T13:29:38.570Z,15.70
2019-02-19T13:32:10.972Z,15.80
2019-02-19T13:34:43.355Z,15.80
2019-02-19T13:37:15.766Z,15.90
2019-02-19T13:39:48.170Z,15.90
2019-02-19T13:42:20.511Z,15.90
2019-02-19T13:44:52.882Z,15.90
2019-02-19T13:47:25.308Z,15.90
2019-02-19T13:49:57.692Z,15.90
2019-02-19T13:52:41.421Z,15.90
2019-02-19T13:55:17.909Z,15.90
2019-02-19T13:57:50.326Z,15.90
2019-02-19T14:00:24.581Z,15.90
2019-02-19T14:02:56.985Z,15.90
2019-02-19T14:05:29.290Z,16.00
2019-02-19T14:08:01.693Z,16.00
2019-02-19T14:10:34.256Z,16.00
2019-02-19T14:13:07.736Z,16.00
2019-02-19T14:15:56.196Z,16.00
2019-02-19T14:18:46.930Z,16.00
2019-02-19T14:21:41.210Z,16.00
2019-02-19T14:24:31.538Z,16.00
2019-02-19T14:27:34.890Z,16.00
2019-02-19T14:30:35.065Z,16.10
2019-02-19T14:33:48.755Z,16.00
2019-02-19T14:36:33.827Z,16.00
2019-02-19T14:39:28.503Z,16.00
2019-02-19T14:42:32.068Z,15.90
2019-02-19T14:45:20.977Z,15.90
2019-02-19T14:48:10.960Z,15.90
2019-02-19T14:51:02.224Z,15.90
2019-02-19T14:53:52.450Z,15.90
2019-02-19T14:56:38.919Z,15.90
2019-02-19T14:59:48.945Z,15.90
2019-02-19T15:02:52.218Z,15.90
2019-02-19T15:05:43.546Z,15.90
2019-02-19T15:08:25.906Z,15.90
2019-02-19T15:11:16.097Z,15.90
2019-02-19T15:14:04.856Z,15.90
2019-02-19T15:16:59.439Z,15.90
2019-02-19T15:19:42.184Z,15.90
2019-02-19T15:22:31.739Z,15.90
2019-02-19T15:25:35.431Z,15.90
2019-02-19T15:28:25.492Z,15.90
2019-02-19T15:31:19.881Z,15.90
2019-02-19T15:34:09.938Z,15.90
2019-02-19T15:37:00.369Z,15.90
2019-02-19T15:40:07.277Z,15.80
2019-02-19T15:43:13.478Z,15.80
2019-02-19T15:46:03.518Z,15.80
2019-02-19T15:49:04.562Z,15.80
2019-02-19T15:52:01.811Z,15.70
2019-02-19T15:55:08.479Z,15.70
2019-02-19T15:58:04.817Z,15.70
2019-02-19T16:00:45.276Z,15.70
2019-02-19T16:03:31.503Z,15.70
2019-02-19T16:06:19.586Z,15.70
2019-02-19T16:09:09.742Z,15.70
2019-02-19T16:12:00.054Z,15.70
2019-02-19T16:14:53.050Z,15.70
2019-02-19T16:17:43.634Z,15.70
2019-02-19T16:20:38.125Z,15.70
2019-02-19T16:23:32.556Z,15.70
2019-02-19T16:26:36.416Z,15.70
2019-02-19T16:29:27.794Z,15.70
2019-02-19T16:32:16.838Z,15.70
2019-02-19T16:35:00.827Z,15.70
2019-02-19T16:37:53.322Z,15.70
2019-02-19T16:40:43.723Z,15.80
2019-02-19T16:43:41.088Z,15.80
2019-02-19T16:46:18.945Z,15.70
2019-02-19T16:49:02.128Z,15.70
2019-02-19T16:51:53.911Z,15.70
2019-02-19T16:54:35.451Z,15.70
2019-02-19T16:57:13.547Z,15.70
2019-02-19T17:00:05.750Z,15.70
2019-02-19T17:02:58.304Z,15.70
2019-02-19T17:05:49.842Z,15.70
2019-02-19T17:08:45.829Z,15.70
2019-02-19T17:11:37.559Z,15.70
2019-02-19T17:14:33.333Z,15.70
2019-02-19T17:17:13.661Z,15.60
2019-02-19T17:20:26.408Z,15.60
2019-02-19T17:23:09.100Z,15.60
2019-02-19T17:25:59.198Z,15.50
2019-02-19T17:28:49.389Z,15.50
2019-02-19T17:31:37.726Z,15.40
2019-02-19T17:34:29.345Z,15.40
2019-02-19T17:37:26.983Z,15.30
2019-02-19T17:40:13.838Z,15.30
2019-02-19T17:43:17.705Z,15.30
2019-02-19T17:45:57.489Z,15.30
2019-02-19T17:48:45.971Z,15.30
2019-02-19T17:51:43.327Z,15.30
2019-02-19T17:54:28.790Z,15.20
2019-02-19T17:57:23.604Z,15.20
2019-02-19T18:00:10.549Z,15.20
2019-02-19T18:03:08.425Z,15.20
2019-02-19T18:05:57.568Z,15.20
2019-02-19T18:08:39.011Z,15.10
2019-02-19T18:11:33.381Z,15.10
2019-02-19T18:14:24.715Z,15.10
2019-02-19T18:17:14.438Z,15.10
2019-02-19T18:19:46.845Z,15.10
2019-02-19T18:22:19.224Z,15.00
2019-02-19T18:24:51.619Z,15.00
2019-02-19T18:27:24.092Z,15.00
2019-02-19T18:29:56.572Z,14.90
2019-02-19T18:32:30.640Z,14.90
2019-02-19T18:35:03.109Z,14.90
2019-02-19T18:37:36.712Z,14.90
2019-02-19T18:40:09.357Z,14.90
2019-02-19T18:42:41.780Z,14.90
2019-02-19T18:45:14.327Z,14.90
2019-02-19T18:47:46.921Z,14.80
2019-02-19T18:50:19.451Z,14.80
2019-02-19T18:52:51.823Z,14.80
2019-02-19T18:55:24.241Z,14.80
2019-02-19T18:57:56.639Z,14.80
2019-02-19T19:00:29.048Z,14.80
2019-02-19T19:03:01.486Z,14.80
2019-02-19T19:05:33.881Z,14.80
2019-02-19T19:08:09.740Z,14.70
2019-02-19T19:10:42.152Z,14.70
2019-02-19T19:13:14.520Z,14.70
2019-02-19T19:15:47.007Z,14.70
2019-02-19T19:18:20.351Z,14.70
2019-02-19T19:20:52.743Z,14.60
2019-02-19T19:23:25.116Z,14.60
2019-02-19T19:25:57.639Z,14.60
2019-02-19T19:28:30.061Z,14.50
2019-02-19T19:31:02.478Z,14.50
2019-02-19T19:33:34.856Z,14.40
2019-02-19T19:36:07.269Z,14.40
2019-02-19T19:38:39.642Z,14.30
2019-02-19T19:41:12.151Z,14.30
2019-02-19T19:43:44.537Z,14.20
2019-02-19T19:46:16.943Z,14.20
2019-02-19T19:48:49.355Z,14.20
2019-02-19T19:51:22.048Z,14.10
2019-02-19T19:53:54.425Z,14.10
2019-02-19T19:56:27.906Z,14.10
2019-02-19T19:59:00.294Z,14.00
2019-02-19T20:01:32.837Z,14.00
2019-02-19T20:04:05.335Z,14.00
2019-02-19T20:06:37.733Z,14.00
2019-02-19T20:09:10.133Z,13.90
2019-02-19T20:11:43.955Z,13.90
2019-02-19T20:14:16.329Z,13.90
2019-02-19T20:16:48.948Z,13.90
2019-02-19T20:19:21.378Z,13.80
2019-02-19T20:21:53.817Z,13.80
2019-02-19T20:24:26.510Z,13.70
2019-02-19T20:26:59.082Z,13.70
2019-02-19T20:29:31.473Z,13.60
2019-02-19T20:32:06.937Z,13.60
2019-02-19T20:34:39.330Z,13.60
2019-02-19T20:37:11.736Z,13.60
2019-02-19T20:39:44.243Z,13.50
2019-02-19T20:42:18.315Z,13.50
2019-02-19T20:44:50.684Z,13.50
2019-02-19T20:47:24.167Z,13.50
2019-02-19T20:49:56.573Z,13.50
2019-02-19T20:52:28.981Z,13.40
2019-02-19T20:55:01.362Z,13.40
2019-02-19T20:57:35.233Z,13.30
2019-02-19T21:00:11.595Z,13.30
2019-02-19T21:02:45.609Z,13.20
2019-02-19T21:05:18.060Z,13.20
2019-02-19T21:07:50.742Z,13.20
2019-02-19T21:10:23.139Z,13.20
2019-02-19T21:12:55.562Z,13.10
2019-02-19T21:15:27.946Z,13.10
2019-02-19T21:18:00.366Z,13.00
2019-02-19T21:20:32.841Z,13.00
2019-02-19T21:23:05.521Z,12.90
2019-02-19T21:25:37.992Z,12.90
2019-02-19T21:28:10.403Z,12.80
2019-02-19T21:30:42.902Z,12.80
2019-02-19T21:33:15.381Z,12.70
2019-02-19T21:35:47.764Z,12.70
2019-02-19T21:38:20.348Z,12.70
2019-02-19T21:40:52.808Z,12.60
2019-02-19T21:43:25.275Z,12.70
2019-02-19T21:45:57.741Z,12.60
2019-02-19T21:48:30.146Z,12.60
2019-02-19T21:51:02.523Z,12.60
2019-02-19T21:53:35.003Z,12.50
2019-02-19T21:56:07.454Z,12.50
2019-02-19T21:58:39.937Z,12.50
2019-02-19T22:01:12.395Z,12.50
2019-02-19T22:03:45.017Z,12.40
2019-02-19T22:06:17.481Z,12.40
2019-02-19T22:08:51.055Z,12.40
2019-02-19T22:11:23.447Z,12.30
2019-02-19T22:13:56.821Z,12.30
2019-02-19T22:16:29.209Z,12.30
2019-02-19T22:19:01.628Z,12.30
2019-02-19T22:21:42.144Z,12.30
2019-02-19T22:24:16.196Z,12.30
2019-02-19T22:26:48.588Z,12.30
2019-02-19T22:29:21.009Z,12.20
2019-02-19T22:31:53.415Z,12.20
2019-02-19T22:34:25.814Z,12.20
2019-02-19T22:36:58.197Z,12.20
2019-02-19T22:39:30.609Z,12.20
2019-02-19T22:42:03.003Z,12.10
2019-02-19T22:44:35.339Z,12.10
2019-02-19T22:47:07.734Z,12.00
2019-02-19T22:49:40.146Z,12.00
2019-02-19T22:52:12.928Z,12.00
2019-02-19T22:55:00.737Z,12.00
2019-02-19T22:57:33.130Z,12.00
2019-02-19T23:00:08.632Z,11.90
2019-02-19T23:02:42.689Z,11.90
2019-02-19T23:05:15.171Z,11.90
2019-02-19T23:07:47.558Z,11.80
2019-02-19T23:10:19.961Z,11.80
2019-02-19T23:12:52.410Z,11.80
2019-02-19T23:15:24.819Z,11.70
2019-02-19T23:17:57.282Z,11.70
2019-02-19T23:20:29.679Z,11.70
2019-02-19T23:23:02.071Z,11.70
2019-02-19T23:25:34.486Z,11.70
2019-02-19T23:28:06.871Z,11.70
2019-02-19T23:30:40.291Z,11.70
2019-02-19T23:33:12.755Z,11.80
2019-02-19T23:35:59.197Z,11.70
2019-02-19T23:38:31.514Z,11.70
2019-02-19T23:41:03.933Z,11.70
2019-02-19T23:43:36.325Z,11.70
2019-02-19T23:46:08.731Z,11.70
2019-02-19T23:48:41.122Z,11.70
2019-02-19T23:51:13.541Z,11.80
2019-02-19T23:53:45.929Z,11.80
2019-02-19T23:56:18.335Z,11.80
2019-02-19T23:58:50.720Z,11.80
